OICS  Sanandaj  Airport

Iran

Add Bookmark
ICAO OICS
IATA SDG
Type Airport
Status Operational
Latitude
35° 14' 45" N
35.245899
Longitude
47° 0' 33" E
47.009201
Local (DST + 5) UTC (GMT + 4)
Jul 4, 2015 11:29 Jul 4, 2015 18:59
Sunrise-Sunset Local UTC
Begin Civil Twilight 05:41 01:11
Sunrise 06:10 01:40
Sunset 08:41 16:11
End Civil Twilight 09:11 16:41
VFR
VFR
MVFR
MVFR
IFR
IFR
LIFR
LIFR
Unknown
Unavailable

Current Weather

METAR Observed VFR
OICS 041200Z 21006KT 9999 FEW040 SCT100 39/00 Q1012 Sat, Jul 4, 2015 @ 12:00 UTC
(6 Hours, 59 Minutes ago)
Visual Flight Rules
Wind Visibility Clouds Conditions
210° at 6 knots (11 kph) 10 km or more
  • Few at 4,000 ft AGL
  • Scattered at 10,000 ft AGL
  • No significant weather
Temperatures Readings Precipitation
Current Temp
39°C
102°F
Dewpoint
0°C
32°F
Humidity 9%
Altimeter 29.88" Hg
Sea Level Pressure 1,012 mb
Field Elevation
1,373 m
4,505 ft
None Recorded
-
-

CheckWX.com is intended as a tool to help pilots better visualize weather data. It is not intended as a substitute for an official weather briefing obtained from a Flight Service Station. CheckWX.com does not meet the FAA requirements for an official pre-flight weather briefing. Therefore, it's important that pilots still call and obtain an official FSS pre-flight weather briefing.

© 2007-2015 CheckWX.com
18:59:00 UTC